Time;durP1;ratioP1;P1;durP2;ratioP2;P2;SDS_P1;SDS_P2;PMS_P1;PMS_P2;Temp;Humidity;BMP_temperature;BMP_pressure;BME280_temperature;BME280_humidity;BME280_pressure;Samples;Min_cycle;Max_cycle;Signal;HPM_P1;HPM_P2
2021/12/28 00:01:27;;;;;;;;;;;4.40;99.90;;;;;;5032712;28;19921;-73
2021/12/28 00:03:54;;;;;;;;;;;4.30;99.90;;;;;;5031612;28;19917;-73
2021/12/28 00:06:19;;;;;;;;;;;4.40;99.90;;;;;;5031653;28;20335;-72
2021/12/28 00:08:46;;;;;;;;;;;4.40;99.90;;;;;;5032997;28;19936;-73
2021/12/28 00:11:11;;;;;;;;;;;4.50;99.90;;;;;;5032435;28;19913;-73
2021/12/28 00:13:38;;;;;;;;;;;4.50;99.90;;;;;;5032294;28;19932;-73
2021/12/28 00:18:32;;;;;;;;;;;4.50;99.90;;;;;;5032570;28;19921;-73
2021/12/28 00:20:59;;;;;;;;;;;4.50;99.90;;;;;;5032909;28;19919;-73
2021/12/28 00:23:33;;;;;;;;;;;4.50;99.90;;;;;;5031629;28;19940;-73
2021/12/28 00:25:58;;;;;;;;;;;4.60;99.90;;;;;;5032230;28;19953;-72
2021/12/28 00:28:24;;;;;;;;;;;4.60;99.90;;;;;;5032210;28;20370;-72
2021/12/28 00:30:51;;;;;;;;;;;4.60;99.90;;;;;;5032134;28;19913;-73
2021/12/28 00:33:17;;;;;;;;;;;4.70;99.90;;;;;;5032153;28;19913;-72
2021/12/28 00:35:43;;;;;;;;;;;4.70;99.90;;;;;;5032811;28;19913;-73
2021/12/28 00:38:11;;;;;;;;;;;4.70;99.90;;;;;;5031882;28;20071;-73
2021/12/28 00:40:37;;;;;;;;;;;4.70;99.90;;;;;;5031976;28;19921;-73
2021/12/28 00:43:03;;;;;;;;;;;4.60;99.90;;;;;;5032149;28;19960;-73
2021/12/28 00:45:28;;;;;;;;;;;4.70;99.90;;;;;;5031797;28;20339;-73
2021/12/28 00:47:54;;;;;;;;;;;4.70;99.90;;;;;;5032425;28;19913;-73
2021/12/28 00:50:20;;;;;;;;;;;4.70;99.90;;;;;;5032194;28;19914;-74
2021/12/28 00:52:46;;;;;;;;;;;4.70;99.90;;;;;;5031910;28;20212;-73
2021/12/28 00:55:12;;;;;;;;;;;4.70;99.90;;;;;;5031924;28;20318;-72
2021/12/28 00:57:38;;;;;;;;;;;4.70;99.90;;;;;;5031820;28;19921;-72
2021/12/28 01:00:05;;;;;;;;;;;4.80;99.90;;;;;;5032372;28;19917;-73
2021/12/28 01:02:31;;;;;;;;;;;4.80;99.90;;;;;;5031885;28;19929;-73
2021/12/28 01:04:56;;;;;;;;;;;4.80;99.90;;;;;;5031767;28;19936;-73
2021/12/28 01:07:22;;;;;;;;;;;4.90;99.90;;;;;;5031819;28;19913;-73
2021/12/28 01:09:47;;;;;;;;;;;4.90;99.90;;;;;;5031862;28;19925;-73
2021/12/28 01:12:13;;;;;;;;;;;5.00;99.90;;;;;;5032122;28;20644;-73
2021/12/28 01:14:38;;;;;;;;;;;4.90;99.90;;;;;;5030670;28;19921;-73
2021/12/28 01:17:05;;;;;;;;;;;5.00;99.90;;;;;;5031737;28;19917;-72
2021/12/28 01:19:30;;;;;;;;;;;4.90;99.90;;;;;;5030587;28;20297;-73
2021/12/28 01:21:56;;;;;;;;;;;4.90;99.90;;;;;;5030815;28;19917;-73
2021/12/28 01:24:21;;;;;;;;;;;4.90;99.90;;;;;;5031456;28;19920;-72
2021/12/28 01:26:47;;;;;;;;;;;4.90;99.90;;;;;;5031192;28;19909;-73
2021/12/28 01:29:13;;;;;;;;;;;4.90;99.90;;;;;;5031647;28;19979;-72
2021/12/28 01:31:39;;;;;;;;;;;4.80;99.90;;;;;;5031408;28;19940;-74
2021/12/28 01:34:05;;;;;;;;;;;4.90;99.90;;;;;;5032600;28;19917;-74
2021/12/28 01:36:30;;;;;;;;;;;4.80;99.90;;;;;;5035456;28;19913;-73
2021/12/28 01:38:56;;;;;;;;;;;4.90;99.90;;;;;;5035765;28;19913;-72
2021/12/28 01:41:22;;;;;;;;;;;4.90;99.90;;;;;;5035474;28;19917;-73
2021/12/28 01:43:53;;;;;;;;;;;4.90;99.90;;;;;;5035276;28;19913;-74
2021/12/28 01:46:19;;;;;;;;;;;4.90;99.90;;;;;;5034472;28;19917;-74
2021/12/28 01:48:44;;;;;;;;;;;4.90;99.90;;;;;;5034232;28;19924;-73
2021/12/28 01:51:11;;;;;;;;;;;4.90;99.90;;;;;;5035559;28;20003;-73
2021/12/28 01:53:37;;;;;;;;;;;4.80;99.90;;;;;;5035088;28;20298;-72
2021/12/28 01:56:05;;;;;;;;;;;4.90;99.90;;;;;;5035198;28;19913;-73
2021/12/28 01:58:30;;;;;;;;;;;4.90;99.90;;;;;;5034903;28;19917;-73
2021/12/28 02:00:57;;;;;;;;;;;4.90;99.90;;;;;;5035118;28;20365;-73
2021/12/28 02:03:23;;;;;;;;;;;4.90;99.90;;;;;;5034855;28;19909;-72
2021/12/28 02:05:50;;;;;;;;;;;5.00;99.90;;;;;;5035124;28;20351;-73
2021/12/28 02:08:16;;;;;;;;;;;4.90;99.90;;;;;;5034926;28;19913;-73
2021/12/28 02:10:43;;;;;;;;;;;4.90;99.90;;;;;;5034943;28;20322;-73
2021/12/28 02:13:08;;;;;;;;;;;4.90;99.90;;;;;;5035057;28;19921;-73
2021/12/28 02:15:34;;;;;;;;;;;5.00;99.90;;;;;;5033770;28;19919;-73
2021/12/28 02:18:00;;;;;;;;;;;5.00;99.90;;;;;;5034938;28;20317;-73
2021/12/28 02:20:25;;;;;;;;;;;5.00;99.90;;;;;;5034751;28;19996;-73
2021/12/28 02:22:51;;;;;;;;;;;5.10;99.90;;;;;;5033647;28;20343;-73
2021/12/28 02:25:17;;;;;;;;;;;5.10;99.90;;;;;;5034664;28;19943;-73
2021/12/28 02:27:43;;;;;;;;;;;5.20;99.90;;;;;;5034554;28;20250;-73
2021/12/28 02:30:11;;;;;;;;;;;5.20;99.90;;;;;;5033930;28;19913;-73
2021/12/28 02:32:38;;;;;;;;;;;5.30;99.90;;;;;;5034172;28;19936;-73
2021/12/28 02:35:06;;;;;;;;;;;5.30;99.90;;;;;;5032550;28;20382;-73
2021/12/28 02:37:31;;;;;;;;;;;5.30;99.90;;;;;;5014537;28;19913;-73
2021/12/28 02:39:57;;;;;;;;;;;5.40;99.90;;;;;;5014599;28;19917;-73
2021/12/28 02:42:24;;;;;;;;;;;5.40;99.90;;;;;;5014252;28;19909;-72
2021/12/28 02:45:10;;;;;;;;;;;5.40;99.90;;;;;;5014092;28;19937;-74
2021/12/28 02:47:36;;;;;;;;;;;5.40;99.90;;;;;;5014282;28;19933;-72
2021/12/28 02:50:02;;;;;;;;;;;5.50;99.90;;;;;;5014146;28;19914;-72
2021/12/28 02:52:28;;;;;;;;;;;5.50;99.90;;;;;;5014353;28;19960;-73
2021/12/28 02:54:53;;;;;;;;;;;5.50;99.90;;;;;;5014243;28;19921;-72
2021/12/28 02:57:19;;;;;;;;;;;5.60;99.90;;;;;;5013846;28;19910;-72
2021/12/28 02:59:45;;;;;;;;;;;5.70;99.90;;;;;;5014634;28;19993;-73
2021/12/28 03:02:11;;;;;;;;;;;5.70;99.90;;;;;;5014113;28;19913;-73
2021/12/28 03:04:36;;;;;;;;;;;5.70;99.90;;;;;;5013839;28;19979;-72
2021/12/28 03:07:02;;;;;;;;;;;5.70;99.90;;;;;;5012786;28;19913;-73
2021/12/28 03:09:27;;;;;;;;;;;5.70;99.90;;;;;;5012745;28;20009;-73
2021/12/28 03:11:53;;;;;;;;;;;5.70;99.90;;;;;;5014420;28;19909;-73
2021/12/28 03:14:18;;;;;;;;;;;5.70;99.90;;;;;;5013861;28;19949;-71
2021/12/28 03:16:44;;;;;;;;;;;5.70;99.90;;;;;;5013940;28;19925;-73
2021/12/28 03:19:09;;;;;;;;;;;5.70;99.90;;;;;;5012701;28;19917;-73
2021/12/28 03:21:35;;;;;;;;;;;5.80;99.90;;;;;;5013796;28;19930;-72
2021/12/28 03:24:01;;;;;;;;;;;5.80;99.90;;;;;;5013961;28;19910;-72
2021/12/28 03:26:27;;;;;;;;;;;5.80;99.90;;;;;;5013686;28;19914;-72
2021/12/28 03:28:53;;;;;;;;;;;5.80;99.90;;;;;;5013651;28;20016;-73
2021/12/28 03:31:19;;;;;;;;;;;5.80;99.90;;;;;;5013624;28;20403;-73
2021/12/28 03:33:46;;;;;;;;;;;5.80;99.90;;;;;;5013778;28;19914;-73
2021/12/28 03:36:13;;;;;;;;;;;5.80;99.90;;;;;;5013827;28;19910;-72
2021/12/28 03:38:40;;;;;;;;;;;5.80;99.90;;;;;;5012576;28;19917;-72
2021/12/28 03:41:07;;;;;;;;;;;5.90;99.90;;;;;;5013521;28;19913;-73
2021/12/28 03:43:37;;;;;;;;;;;5.90;99.90;;;;;;5012354;28;19920;-73
2021/12/28 03:46:04;;;;;;;;;;;5.90;99.90;;;;;;5013463;28;19914;-73
2021/12/28 03:48:29;;;;;;;;;;;6.00;99.90;;;;;;5013311;28;19949;-73
2021/12/28 03:50:55;;;;;;;;;;;5.90;99.90;;;;;;5013783;28;19983;-72
2021/12/28 03:53:20;;;;;;;;;;;6.00;99.90;;;;;;5013274;28;19921;-72
2021/12/28 03:55:46;;;;;;;;;;;6.00;99.90;;;;;;5012158;28;19967;-72
2021/12/28 03:58:11;;;;;;;;;;;6.00;99.90;;;;;;5012943;28;20415;-72
2021/12/28 04:00:38;;;;;;;;;;;6.00;99.90;;;;;;5012142;28;19929;-72
2021/12/28 04:03:04;;;;;;;;;;;6.00;99.90;;;;;;5013566;28;19913;-71
2021/12/28 04:05:30;;;;;;;;;;;6.10;99.90;;;;;;5013055;28;20340;-73
2021/12/28 04:07:55;;;;;;;;;;;6.00;99.90;;;;;;5012971;28;19920;-72
2021/12/28 04:10:29;;;;;;;;;;;6.00;99.90;;;;;;5012997;28;19913;-73
2021/12/28 04:12:54;;;;;;;;;;;6.00;99.90;;;;;;5012959;28;19980;-73
2021/12/28 04:15:20;;;;;;;;;;;6.00;99.90;;;;;;5012820;28;19913;-73
2021/12/28 04:17:45;;;;;;;;;;;6.10;99.90;;;;;;5013020;28;20531;-72
2021/12/28 04:20:16;;;;;;;;;;;6.10;99.90;;;;;;5011845;28;19917;-73
2021/12/28 04:22:41;;;;;;;;;;;6.10;99.90;;;;;;5012591;28;19956;-72
2021/12/28 04:25:08;;;;;;;;;;;6.10;99.90;;;;;;5012821;28;19956;-72
2021/12/28 04:27:33;;;;;;;;;;;6.00;99.90;;;;;;5012775;28;19916;-72
2021/12/28 04:29:59;;;;;;;;;;;6.00;99.90;;;;;;5012087;28;19921;-72
2021/12/28 04:32:24;;;;;;;;;;;6.00;99.90;;;;;;5012252;28;19945;-72
2021/12/28 04:34:50;;;;;;;;;;;6.00;99.90;;;;;;5012570;28;19914;-73
2021/12/28 04:37:15;;;;;;;;;;;6.00;99.90;;;;;;5012249;28;20445;-72
2021/12/28 04:39:41;;;;;;;;;;;6.00;99.90;;;;;;5012747;28;20263;-72
2021/12/28 04:42:07;;;;;;;;;;;6.00;99.90;;;;;;5012838;28;20221;-72
2021/12/28 04:44:32;;;;;;;;;;;5.90;99.90;;;;;;5011066;28;20295;-73
2021/12/28 04:46:58;;;;;;;;;;;5.90;99.90;;;;;;5012511;28;19914;-72
2021/12/28 04:49:26;;;;;;;;;;;5.90;99.90;;;;;;5012313;28;19971;-74
2021/12/28 04:51:51;;;;;;;;;;;5.90;99.90;;;;;;5012360;28;20402;-72
2021/12/28 04:54:18;;;;;;;;;;;6.00;99.90;;;;;;5012318;28;19910;-73
2021/12/28 04:56:45;;;;;;;;;;;5.90;99.90;;;;;;5011965;28;19905;-73
2021/12/28 04:59:12;;;;;;;;;;;5.90;99.90;;;;;;5012297;28;19917;-73
2021/12/28 05:01:37;;;;;;;;;;;5.80;99.90;;;;;;5012247;28;20382;-72
2021/12/28 05:04:04;;;;;;;;;;;5.80;99.90;;;;;;5011903;28;19913;-73
2021/12/28 05:06:29;;;;;;;;;;;5.90;99.90;;;;;;5011299;28;19913;-72
2021/12/28 05:08:55;;;;;;;;;;;6.00;99.90;;;;;;5013285;28;20008;-72
2021/12/28 05:11:21;;;;;;;;;;;6.00;99.90;;;;;;5016305;28;19913;-72
2021/12/28 05:13:46;;;;;;;;;;;6.00;99.90;;;;;;5016276;28;20276;-72
2021/12/28 05:16:15;;;;;;;;;;;6.10;99.90;;;;;;5016260;28;19913;-72
2021/12/28 05:18:40;;;;;;;;;;;6.10;99.90;;;;;;5016222;28;20004;-71
2021/12/28 05:21:06;;;;;;;;;;;6.10;99.90;;;;;;5016478;28;20602;-73
2021/12/28 05:23:31;;;;;;;;;;;6.10;99.90;;;;;;5016024;28;19917;-73
2021/12/28 05:25:57;;;;;;;;;;;6.00;99.90;;;;;;5016073;28;19996;-74
2021/12/28 05:28:22;;;;;;;;;;;6.00;99.90;;;;;;5015938;28;19914;-73
2021/12/28 05:30:48;;;;;;;;;;;6.10;99.90;;;;;;5015562;28;19964;-73
2021/12/28 05:33:13;;;;;;;;;;;6.20;99.90;;;;;;5016288;28;20350;-73
2021/12/28 05:35:39;;;;;;;;;;;6.20;99.90;;;;;;5015781;28;20110;-73
2021/12/28 05:38:04;;;;;;;;;;;6.30;99.90;;;;;;5015738;28;19914;-72
2021/12/28 05:40:30;;;;;;;;;;;6.30;99.90;;;;;;5014523;28;20403;-72
2021/12/28 05:42:55;;;;;;;;;;;6.30;99.90;;;;;;5014374;28;19913;-71
2021/12/28 05:45:21;;;;;;;;;;;6.40;99.90;;;;;;5015609;28;19920;-72
2021/12/28 05:47:46;;;;;;;;;;;6.40;99.90;;;;;;5016319;28;20011;-72
2021/12/28 05:50:13;;;;;;;;;;;6.40;99.90;;;;;;5015865;28;19913;-73
2021/12/28 05:52:38;;;;;;;;;;;6.40;99.90;;;;;;5014503;28;19914;-72
2021/12/28 05:55:05;;;;;;;;;;;6.40;99.90;;;;;;5014383;28;20458;-72
2021/12/28 05:57:30;;;;;;;;;;;6.40;99.90;;;;;;5014424;28;19916;-73
2021/12/28 05:59:56;;;;;;;;;;;6.40;99.90;;;;;;5015939;28;20291;-73
2021/12/28 06:02:22;;;;;;;;;;;6.40;99.90;;;;;;5015564;28;20388;-73
2021/12/28 06:04:47;;;;;;;;;;;6.40;99.90;;;;;;5015507;28;19936;-72
2021/12/28 06:07:12;;;;;;;;;;;6.50;99.90;;;;;;5014482;28;19926;-74
2021/12/28 06:09:38;;;;;;;;;;;6.50;99.90;;;;;;5015505;28;19975;-72
2021/12/28 06:12:06;;;;;;;;;;;6.60;99.90;;;;;;5015528;28;20255;-72
2021/12/28 06:14:32;;;;;;;;;;;6.60;99.90;;;;;;5015179;28;20004;-73
2021/12/28 06:16:57;;;;;;;;;;;6.50;99.90;;;;;;5015062;28;20348;-72
2021/12/28 06:19:23;;;;;;;;;;;6.50;99.90;;;;;;5014568;28;19918;-72
2021/12/28 06:21:48;;;;;;;;;;;6.60;99.90;;;;;;5013226;28;20387;-72
2021/12/28 06:24:13;;;;;;;;;;;6.60;99.90;;;;;;5015452;28;19921;-72
2021/12/28 06:26:39;;;;;;;;;;;6.60;99.90;;;;;;5014709;28;19944;-73
2021/12/28 06:29:05;;;;;;;;;;;6.50;99.90;;;;;;5013646;28;19913;-73
2021/12/28 06:31:31;;;;;;;;;;;6.60;99.90;;;;;;5014490;28;19925;-72
2021/12/28 06:33:58;;;;;;;;;;;6.50;99.90;;;;;;5014671;28;19975;-73
2021/12/28 06:36:23;;;;;;;;;;;6.50;99.90;;;;;;5014810;28;19913;-72
2021/12/28 06:38:49;;;;;;;;;;;6.50;99.90;;;;;;5014341;28;19917;-72
2021/12/28 06:41:15;;;;;;;;;;;6.50;99.90;;;;;;5014544;28;19913;-73
2021/12/28 06:43:40;;;;;;;;;;;6.50;99.90;;;;;;5014432;28;19953;-72
2021/12/28 06:46:06;;;;;;;;;;;6.50;99.90;;;;;;5014309;28;20251;-73
2021/12/28 06:48:31;;;;;;;;;;;6.50;99.90;;;;;;5014381;28;19936;-72
2021/12/28 06:50:57;;;;;;;;;;;6.50;99.90;;;;;;5013620;28;19936;-73
2021/12/28 06:53:22;;;;;;;;;;;6.50;99.90;;;;;;5014388;28;19918;-72
2021/12/28 06:55:48;;;;;;;;;;;6.40;99.90;;;;;;5013293;28;20343;-72
2021/12/28 06:58:13;;;;;;;;;;;6.40;99.90;;;;;;5013734;28;19918;-72
2021/12/28 07:00:40;;;;;;;;;;;6.40;99.90;;;;;;5013925;28;19932;-72
2021/12/28 07:03:06;;;;;;;;;;;6.40;99.90;;;;;;5014512;28;20164;-72
2021/12/28 07:05:32;;;;;;;;;;;6.40;99.90;;;;;;5013398;28;19913;-72
2021/12/28 07:07:57;;;;;;;;;;;6.50;99.90;;;;;;5013059;28;20267;-73
2021/12/28 07:10:23;;;;;;;;;;;6.40;99.90;;;;;;5013761;28;20004;-71
2021/12/28 07:12:50;;;;;;;;;;;6.50;99.90;;;;;;5013141;28;20291;-72
2021/12/28 07:15:16;;;;;;;;;;;6.40;99.90;;;;;;5014172;28;20128;-71
2021/12/28 07:17:42;;;;;;;;;;;6.50;99.90;;;;;;5013981;28;19924;-71
2021/12/28 07:20:08;;;;;;;;;;;6.50;99.90;;;;;;5013744;28;19917;-72
2021/12/28 07:22:34;;;;;;;;;;;6.50;99.90;;;;;;5013820;28;19963;-73
2021/12/28 07:25:00;;;;;;;;;;;6.50;99.90;;;;;;5013661;28;19913;-72
2021/12/28 07:27:25;;;;;;;;;;;6.50;99.90;;;;;;5013790;28;19920;-72
2021/12/28 07:29:51;;;;;;;;;;;6.50;99.90;;;;;;5014079;28;19905;-73
2021/12/28 07:32:16;;;;;;;;;;;6.50;99.90;;;;;;5012125;28;20252;-72
2021/12/28 07:34:42;;;;;;;;;;;6.50;99.90;;;;;;5013701;28;19913;-72
2021/12/28 07:37:07;;;;;;;;;;;6.50;99.90;;;;;;5013466;28;19917;-72
2021/12/28 07:39:33;;;;;;;;;;;6.50;99.90;;;;;;5013460;28;20005;-73
2021/12/28 07:41:58;;;;;;;;;;;6.50;99.90;;;;;;5013968;28;20422;-71
2021/12/28 07:44:25;;;;;;;;;;;6.50;99.90;;;;;;5013448;28;20407;-73
2021/12/28 07:46:51;;;;;;;;;;;6.50;99.90;;;;;;5013096;28;20299;-72
2021/12/28 07:49:16;;;;;;;;;;;6.50;99.90;;;;;;5012451;28;19925;-73
2021/12/28 07:51:42;;;;;;;;;;;6.60;99.90;;;;;;5012077;28;19980;-72
2021/12/28 07:54:07;;;;;;;;;;;6.60;99.90;;;;;;5013448;28;19916;-73
2021/12/28 07:56:33;;;;;;;;;;;6.60;99.90;;;;;;5012081;28;20366;-72
2021/12/28 07:58:58;;;;;;;;;;;6.60;99.90;;;;;;5012968;28;19925;-73
2021/12/28 08:01:24;;;;;;;;;;;6.60;99.90;;;;;;5013170;28;20246;-72
2021/12/28 08:03:50;;;;;;;;;;;6.60;99.90;;;;;;5011947;28;20310;-73
2021/12/28 08:06:15;;;;;;;;;;;6.60;99.90;;;;;;5012478;28;19935;-73
2021/12/28 08:08:41;;;;;;;;;;;6.60;99.90;;;;;;5012135;28;19913;-73
2021/12/28 08:11:07;;;;;;;;;;;6.60;99.90;;;;;;5013052;28;19928;-71
2021/12/28 08:13:32;;;;;;;;;;;6.60;99.90;;;;;;5013189;28;20287;-73
2021/12/28 08:15:58;;;;;;;;;;;6.60;99.90;;;;;;5012852;28;20016;-72
2021/12/28 08:18:23;;;;;;;;;;;6.60;99.90;;;;;;5012771;28;19951;-73
2021/12/28 08:20:49;;;;;;;;;;;6.70;99.90;;;;;;5011991;28;20004;-72
2021/12/28 08:23:15;;;;;;;;;;;6.60;99.90;;;;;;5012717;28;19957;-72
2021/12/28 08:25:41;;;;;;;;;;;6.70;99.90;;;;;;5011726;28;20285;-72
2021/12/28 08:28:06;;;;;;;;;;;6.70;99.90;;;;;;5012585;28;19993;-73
2021/12/28 08:30:34;;;;;;;;;;;6.70;99.90;;;;;;5012619;28;19967;-73
2021/12/28 08:33:03;;;;;;;;;;;6.70;99.90;;;;;;5011924;28;19922;-72
2021/12/28 08:35:29;;;;;;;;;;;6.70;99.90;;;;;;5011445;28;20390;-73
2021/12/28 08:37:54;;;;;;;;;;;6.70;99.90;;;;;;5012814;28;20004;-73
2021/12/28 08:40:20;;;;;;;;;;;6.60;99.90;;;;;;5012411;28;20256;-72
2021/12/28 08:42:45;;;;;;;;;;;6.70;99.90;;;;;;5012118;28;19914;-72
2021/12/28 08:45:11;;;;;;;;;;;6.70;99.90;;;;;;5012858;28;19949;-73
2021/12/28 08:47:37;;;;;;;;;;;6.50;99.90;;;;;;5011372;28;20267;-72
2021/12/28 08:50:05;;;;;;;;;;;6.60;99.90;;;;;;5012649;28;19913;-73
2021/12/28 08:52:31;;;;;;;;;;;6.50;99.90;;;;;;5011590;28;20013;-71
2021/12/28 08:54:57;;;;;;;;;;;6.60;99.90;;;;;;5011394;28;20008;-73
2021/12/28 08:57:22;;;;;;;;;;;6.60;99.90;;;;;;5011011;28;19917;-73
2021/12/28 08:59:48;;;;;;;;;;;6.40;99.90;;;;;;5013037;28;20020;-73
2021/12/28 09:02:14;;;;;;;;;;;6.50;99.90;;;;;;5011160;28;19918;-72
2021/12/28 09:04:43;;;;;;;;;;;6.50;99.90;;;;;;5010976;28;19928;-72
2021/12/28 09:07:16;;;;;;;;;;;6.60;99.90;;;;;;5012287;28;20409;-72
2021/12/28 09:09:42;;;;;;;;;;;6.70;99.90;;;;;;5011980;28;20390;-73
2021/12/28 09:12:08;;;;;;;;;;;6.70;99.90;;;;;;5012597;28;20000;-72
2021/12/28 09:14:34;;;;;;;;;;;6.80;99.90;;;;;;5011958;28;20308;-73
2021/12/28 09:16:59;;;;;;;;;;;6.90;99.90;;;;;;5011166;28;20012;-72
2021/12/28 09:19:25;;;;;;;;;;;7.00;99.90;;;;;;5011920;28;19921;-73
2021/12/28 09:21:50;;;;;;;;;;;7.00;99.90;;;;;;5011962;28;19939;-72
2021/12/28 09:24:16;;;;;;;;;;;7.10;99.90;;;;;;5012141;28;19910;-72
2021/12/28 09:26:41;;;;;;;;;;;7.20;99.90;;;;;;5011268;28;19976;-73
2021/12/28 09:29:07;;;;;;;;;;;7.20;99.90;;;;;;5011852;28;19917;-73
2021/12/28 09:31:33;;;;;;;;;;;7.20;99.90;;;;;;5012062;28;20335;-72
2021/12/28 09:33:59;;;;;;;;;;;7.20;99.90;;;;;;5012075;28;19921;-73
2021/12/28 09:36:25;;;;;;;;;;;7.30;99.90;;;;;;5011417;28;19914;-73
2021/12/28 09:38:50;;;;;;;;;;;7.30;99.90;;;;;;5012802;28;19914;-72
2021/12/28 09:41:16;;;;;;;;;;;7.40;99.90;;;;;;5011886;28;19925;-71
2021/12/28 09:43:42;;;;;;;;;;;7.40;99.90;;;;;;5012140;28;20369;-73
2021/12/28 09:46:07;;;;;;;;;;;7.50;99.90;;;;;;5010786;28;19921;-73
2021/12/28 09:48:33;;;;;;;;;;;7.50;99.90;;;;;;5010748;28;19910;-75
2021/12/28 09:50:59;;;;;;;;;;;7.50;99.90;;;;;;5011257;28;19914;-73
2021/12/28 09:53:25;;;;;;;;;;;7.60;99.90;;;;;;5011880;28;20374;-73
2021/12/28 09:55:51;;;;;;;;;;;7.60;99.90;;;;;;5013608;28;19924;-73
2021/12/28 09:58:16;;;;;;;;;;;7.70;99.90;;;;;;5015408;28;19913;-73
2021/12/28 10:00:42;;;;;;;;;;;7.70;99.90;;;;;;5014509;28;19913;-73
2021/12/28 10:03:07;;;;;;;;;;;7.70;99.90;;;;;;5015552;28;19914;-73
2021/12/28 10:05:33;;;;;;;;;;;7.80;99.90;;;;;;5015237;28;20004;-72
2021/12/28 10:08:00;;;;;;;;;;;7.70;99.90;;;;;;5015317;28;19914;-74
2021/12/28 10:10:26;;;;;;;;;;;7.80;99.90;;;;;;5015381;28;19924;-73
2021/12/28 10:13:00;;;;;;;;;;;7.80;99.90;;;;;;5015207;28;19933;-73
2021/12/28 10:15:30;;;;;;;;;;;7.90;99.90;;;;;;5015152;28;19910;-74
2021/12/28 10:18:01;;;;;;;;;;;7.90;99.90;;;;;;5015695;28;19910;-73
2021/12/28 10:20:31;;;;;;;;;;;7.90;99.90;;;;;;5015182;28;20312;-74
2021/12/28 10:22:58;;;;;;;;;;;8.00;99.90;;;;;;5014929;28;19913;-73
2021/12/28 10:25:43;;;;;;;;;;;8.00;99.90;;;;;;5015184;28;19924;-73
2021/12/28 10:28:13;;;;;;;;;;;8.10;99.90;;;;;;5014930;28;19932;-74
2021/12/28 10:30:41;;;;;;;;;;;8.10;99.90;;;;;;5014411;28;19918;-73
2021/12/28 10:33:09;;;;;;;;;;;8.10;99.90;;;;;;5015419;28;19918;-73
2021/12/28 10:35:36;;;;;;;;;;;8.20;99.90;;;;;;5013695;28;19914;-73
2021/12/28 10:38:07;;;;;;;;;;;8.30;99.90;;;;;;5014696;28;19913;-73
2021/12/28 10:40:37;;;;;;;;;;;8.30;99.90;;;;;;5013430;28;20063;-72
2021/12/28 10:43:03;;;;;;;;;;;8.30;99.90;;;;;;5013447;28;20008;-74
2021/12/28 10:45:36;;;;;;;;;;;8.30;99.90;;;;;;5014596;28;20343;-74
2021/12/28 10:48:16;;;;;;;;;;;8.40;99.90;;;;;;5015146;28;19917;-74
2021/12/28 10:50:50;;;;;;;;;;;8.40;99.90;;;;;;5014453;28;19937;-73
2021/12/28 10:53:19;;;;;;;;;;;8.40;99.90;;;;;;5013209;28;19917;-73
2021/12/28 10:55:47;;;;;;;;;;;8.40;99.90;;;;;;5014513;28;19917;-74
2021/12/28 10:58:27;;;;;;;;;;;8.40;99.90;;;;;;5014060;28;19913;-74
2021/12/28 11:00:53;;;;;;;;;;;8.50;99.90;;;;;;5013118;28;20351;-73
2021/12/28 11:03:23;;;;;;;;;;;8.50;99.90;;;;;;5014298;28;19910;-73
2021/12/28 11:05:50;;;;;;;;;;;8.40;99.90;;;;;;5013607;28;19921;-73
2021/12/28 11:08:16;;;;;;;;;;;8.50;99.90;;;;;;5013980;28;20068;-73
2021/12/28 11:10:50;;;;;;;;;;;8.50;99.90;;;;;;5014071;28;19913;-73
2021/12/28 11:13:18;;;;;;;;;;;8.40;99.90;;;;;;5013842;28;20358;-73
2021/12/28 11:15:45;;;;;;;;;;;8.50;99.90;;;;;;5013628;28;19913;-74
2021/12/28 11:18:18;;;;;;;;;;;8.50;99.90;;;;;;5014264;28;19992;-73
2021/12/28 11:20:44;;;;;;;;;;;8.50;99.90;;;;;;5012757;28;20253;-73
2021/12/28 11:23:11;;;;;;;;;;;8.50;99.90;;;;;;5012581;28;20064;-73
2021/12/28 11:25:37;;;;;;;;;;;8.60;99.90;;;;;;5012947;28;20403;-74
2021/12/28 11:28:19;;;;;;;;;;;8.60;99.90;;;;;;5012439;28;19920;-74
2021/12/28 11:30:57;;;;;;;;;;;8.60;99.90;;;;;;5012045;28;19921;-74
2021/12/28 11:33:22;;;;;;;;;;;8.60;99.90;;;;;;5013156;28;20260;-74
2021/12/28 11:35:48;;;;;;;;;;;8.60;99.90;;;;;;5013710;28;19921;-75
2021/12/28 11:38:13;;;;;;;;;;;8.60;99.90;;;;;;5013073;28;19917;-74
2021/12/28 11:40:39;;;;;;;;;;;8.60;99.90;;;;;;5013449;28;19933;-74
2021/12/28 11:43:04;;;;;;;;;;;8.60;99.90;;;;;;5012169;28;19940;-73
2021/12/28 11:45:30;;;;;;;;;;;8.70;99.90;;;;;;5013219;28;20348;-72
2021/12/28 11:47:57;;;;;;;;;;;8.70;99.90;;;;;;5012520;28;20010;-74
2021/12/28 11:50:23;;;;;;;;;;;8.70;99.90;;;;;;5013142;28;19913;-74
2021/12/28 11:52:51;;;;;;;;;;;8.70;99.90;;;;;;5013140;28;19918;-74
2021/12/28 11:55:18;;;;;;;;;;;8.80;99.90;;;;;;5012162;28;19963;-73
2021/12/28 11:57:50;;;;;;;;;;;8.80;99.90;;;;;;5012055;28;19932;-74
2021/12/28 12:00:17;;;;;;;;;;;8.80;99.90;;;;;;5011841;28;19975;-73
2021/12/28 12:02:45;;;;;;;;;;;8.90;99.90;;;;;;5013184;28;20339;-74
2021/12/28 12:05:16;;;;;;;;;;;9.00;99.90;;;;;;5012763;28;20357;-74
2021/12/28 12:07:41;;;;;;;;;;;9.00;99.90;;;;;;5012694;28;19913;-74
2021/12/28 12:10:09;;;;;;;;;;;9.10;99.90;;;;;;5012633;28;19917;-75
2021/12/28 12:12:49;;;;;;;;;;;9.10;99.90;;;;;;5012928;28;19980;-74
2021/12/28 12:15:15;;;;;;;;;;;9.10;99.90;;;;;;5013046;28;19945;-74
2021/12/28 12:17:45;;;;;;;;;;;9.10;99.90;;;;;;5011744;28;19945;-74
2021/12/28 12:20:20;;;;;;;;;;;9.10;99.90;;;;;;5012611;28;19917;-74
2021/12/28 12:22:50;;;;;;;;;;;9.10;99.90;;;;;;5012907;28;19921;-74
2021/12/28 12:25:17;;;;;;;;;;;9.10;99.90;;;;;;5012572;28;19993;-75
2021/12/28 12:27:54;;;;;;;;;;;9.10;99.90;;;;;;5012429;28;19921;-74
2021/12/28 12:30:19;;;;;;;;;;;9.10;99.90;;;;;;5012495;28;19925;-75
2021/12/28 12:33:07;;;;;;;;;;;9.10;99.90;;;;;;5012846;28;19921;-74
2021/12/28 12:35:42;;;;;;;;;;;9.10;99.90;;;;;;5012392;28;19933;-74
2021/12/28 12:38:17;;;;;;;;;;;9.10;99.90;;;;;;5012284;28;19928;-74
2021/12/28 12:40:59;;;;;;;;;;;9.20;99.90;;;;;;5011469;28;20390;-75
2021/12/28 12:43:40;;;;;;;;;;;9.20;99.90;;;;;;5012517;28;19940;-75
2021/12/28 12:46:05;;;;;;;;;;;9.10;99.90;;;;;;5012559;28;19914;-74
2021/12/28 12:48:37;;;;;;;;;;;9.20;99.90;;;;;;5012463;28;19920;-74
2021/12/28 12:51:21;;;;;;;;;;;9.20;99.90;;;;;;5012754;28;19910;-74
2021/12/28 12:53:50;;;;;;;;;;;9.20;99.90;;;;;;5011114;28;19914;-75
2021/12/28 12:56:17;;;;;;;;;;;9.20;99.90;;;;;;5012176;28;19929;-74
2021/12/28 12:58:45;;;;;;;;;;;9.20;99.90;;;;;;5012173;28;20015;-74
2021/12/28 13:01:26;;;;;;;;;;;9.30;99.90;;;;;;5012211;28;19925;-74
2021/12/28 13:03:53;;;;;;;;;;;9.30;99.90;;;;;;5010935;28;19956;-74
2021/12/28 13:06:50;;;;;;;;;;;9.30;99.90;;;;;;5012008;28;19910;-75
2021/12/28 13:09:16;;;;;;;;;;;9.20;99.90;;;;;;5010600;28;19953;-73
2021/12/28 13:11:42;;;;;;;;;;;9.30;99.90;;;;;;5012595;28;20351;-74
2021/12/28 13:14:08;;;;;;;;;;;9.30;99.90;;;;;;5010720;28;19918;-74
2021/12/28 13:16:34;;;;;;;;;;;9.30;99.90;;;;;;5011995;28;19971;-75
2021/12/28 13:19:07;;;;;;;;;;;9.30;99.90;;;;;;5012075;28;19917;-75
2021/12/28 13:21:33;;;;;;;;;;;9.30;99.90;;;;;;5011847;28;20263;-74
2021/12/28 13:24:08;;;;;;;;;;;9.30;99.90;;;;;;5012426;28;19906;-74
2021/12/28 13:26:47;;;;;;;;;;;9.30;99.90;;;;;;5011844;28;19991;-74
2021/12/28 13:29:27;;;;;;;;;;;9.30;99.90;;;;;;5011387;28;19964;-74
2021/12/28 13:31:53;;;;;;;;;;;9.30;99.90;;;;;;5015605;28;20005;-74
2021/12/28 13:34:19;;;;;;;;;;;9.30;99.90;;;;;;5014851;28;20012;-74
2021/12/28 13:36:49;;;;;;;;;;;9.30;99.90;;;;;;5015762;28;20331;-74
2021/12/28 13:39:14;;;;;;;;;;;9.30;99.90;;;;;;5015919;28;19925;-74
2021/12/28 13:41:47;;;;;;;;;;;9.30;99.90;;;;;;5015114;28;19963;-75
2021/12/28 13:44:12;;;;;;;;;;;9.30;99.90;;;;;;5015277;28;19913;-74
2021/12/28 13:46:38;;;;;;;;;;;9.30;99.90;;;;;;5015168;28;19924;-75
2021/12/28 13:49:03;;;;;;;;;;;9.30;99.90;;;;;;5015435;28;20052;-74
2021/12/28 13:51:30;;;;;;;;;;;9.30;99.90;;;;;;5015299;28;20374;-74
2021/12/28 13:53:57;;;;;;;;;;;9.30;99.90;;;;;;5015809;28;19921;-74
2021/12/28 13:56:22;;;;;;;;;;;9.30;99.90;;;;;;5015382;28;20381;-74
2021/12/28 13:58:49;;;;;;;;;;;9.20;99.90;;;;;;5014083;28;20068;-73
2021/12/28 14:01:16;;;;;;;;;;;9.20;99.90;;;;;;5015223;28;19917;-75
2021/12/28 14:03:53;;;;;;;;;;;9.20;99.90;;;;;;5015200;28;20405;-74
2021/12/28 14:06:18;;;;;;;;;;;9.10;99.90;;;;;;5015039;28;19909;-73
2021/12/28 14:08:44;;;;;;;;;;;9.10;99.90;;;;;;5014583;28;20280;-75
2021/12/28 14:11:10;;;;;;;;;;;9.20;99.90;;;;;;5014924;28;19929;-75
2021/12/28 14:13:38;;;;;;;;;;;9.10;99.90;;;;;;5015159;28;19914;-75
2021/12/28 14:16:08;;;;;;;;;;;9.10;99.90;;;;;;5014836;28;19914;-74
2021/12/28 14:18:42;;;;;;;;;;;9.10;99.90;;;;;;5014884;28;19909;-74
2021/12/28 14:21:09;;;;;;;;;;;9.10;99.90;;;;;;5015227;28;19968;-75
2021/12/28 14:23:34;;;;;;;;;;;9.00;99.90;;;;;;5014907;28;19917;-74
2021/12/28 14:26:04;;;;;;;;;;;9.00;99.90;;;;;;5013592;28;20323;-74
2021/12/28 14:28:29;;;;;;;;;;;9.00;99.90;;;;;;5014961;28;19983;-75
2021/12/28 14:31:08;;;;;;;;;;;9.00;99.90;;;;;;5013338;28;19933;-75
2021/12/28 14:33:53;;;;;;;;;;;9.00;99.90;;;;;;5014606;28;19917;-74